Time;durP1;ratioP1;P1;durP2;ratioP2;P2;SDS_P1;SDS_P2;PMS_P1;PMS_P2;Temp;Humidity;BMP_temperature;BMP_pressure;BME280_temperature;BME280_humidity;BME280_pressure;Samples;Min_cycle;Max_cycle;Signal;HPM_P1;HPM_P2
2021/05/08 00:01:53;;;;;;;10.50;3.38;;;;;;;7.48;93.17;101044.94;4983570;28;20416;-80
2021/05/08 00:04:19;;;;;;;13.20;3.45;;;;;;;7.48;92.97;101052.19;4986881;28;20053;-80
2021/05/08 00:06:45;;;;;;;11.00;3.38;;;;;;;7.39;92.87;101043.44;5027588;28;20033;-80
2021/05/08 00:09:12;;;;;;;7.07;3.47;;;;;;;7.24;94.12;101047.44;5024770;28;20037;-80
2021/05/08 00:11:38;;;;;;;10.13;3.50;;;;;;;7.08;94.99;101046.41;5023990;28;20029;-82
2021/05/08 00:14:04;;;;;;;12.73;3.60;;;;;;;7.12;94.67;101042.75;5021055;28;20258;-80
2021/05/08 00:16:30;;;;;;;14.90;3.85;;;;;;;7.09;94.79;101043.41;5027955;28;20120;-80
2021/05/08 00:18:55;;;;;;;13.93;3.72;;;;;;;7.01;95.77;101038.06;5024803;28;20412;-83
2021/05/08 00:21:21;;;;;;;14.05;3.50;;;;;;;6.91;95.00;101044.56;5032545;28;20508;-82
2021/05/08 00:23:46;;;;;;;11.02;3.70;;;;;;;6.92;95.05;101048.03;5017137;28;20122;-82
2021/05/08 00:26:12;;;;;;;11.77;3.65;;;;;;;6.99;95.55;101051.78;5023160;28;20034;-82
2021/05/08 00:28:38;;;;;;;7.22;3.60;;;;;;;6.96;94.60;101041.72;5024907;28;20037;-83
2021/05/08 00:31:04;;;;;;;10.35;3.38;;;;;;;6.95;95.43;101045.50;5013912;28;20096;-82
2021/05/08 00:33:29;;;;;;;10.45;3.90;;;;;;;6.79;95.26;101046.34;5024286;28;20299;-80
2021/05/08 00:35:55;;;;;;;6.30;3.08;;;;;;;6.74;95.77;101046.50;5022124;28;20057;-80
2021/05/08 00:38:20;;;;;;;9.05;3.83;;;;;;;6.88;95.21;101047.91;5020157;28;20441;-82
2021/05/08 00:40:46;;;;;;;9.65;3.65;;;;;;;6.85;94.58;101051.19;5034300;28;20080;-82
2021/05/08 00:43:14;;;;;;;10.75;3.33;;;;;;;6.63;96.02;101035.38;5023643;28;20032;-83
2021/05/08 00:45:40;;;;;;;10.45;4.20;;;;;;;6.42;96.55;101039.81;5036920;28;20607;-80
2021/05/08 00:48:09;;;;;;;8.85;4.13;;;;;;;6.46;97.85;101042.66;5019388;28;20030;-80
2021/05/08 00:50:35;;;;;;;11.43;3.75;;;;;;;6.48;96.82;101038.56;5022306;28;20044;-80
2021/05/08 00:53:05;;;;;;;6.15;3.78;;;;;;;6.39;97.67;101038.56;5015858;28;20612;-80
2021/05/08 00:55:31;;;;;;;9.48;3.63;;;;;;;6.35;97.72;101042.16;5019156;28;20037;-80
2021/05/08 00:57:59;;;;;;;6.63;3.58;;;;;;;6.52;97.46;101041.38;5026776;28;20044;-80
2021/05/08 01:00:25;;;;;;;13.18;3.90;;;;;;;6.51;97.44;101042.47;5005978;28;20097;-80
2021/05/08 01:02:50;;;;;;;12.30;3.75;;;;;;;6.61;95.94;101037.56;5024948;28;20040;-81
2021/05/08 01:05:17;;;;;;;9.43;4.03;;;;;;;6.47;96.38;101038.84;5035985;28;20060;-80
2021/05/08 01:07:43;;;;;;;10.02;3.65;;;;;;;6.48;96.76;101035.09;5024616;28;20030;-79
2021/05/08 01:10:12;;;;;;;9.20;3.15;;;;;;;6.25;96.80;101039.84;5037749;28;20034;-80
2021/05/08 01:12:40;;;;;;;7.65;3.90;;;;;;;6.00;98.83;101044.06;5025271;28;20026;-82
2021/05/08 01:15:09;;;;;;;6.93;3.72;;;;;;;6.00;97.95;101043.31;5021097;28;20037;-81
2021/05/08 01:17:36;;;;;;;4.97;3.08;;;;;;;5.88;99.13;101035.91;5012489;28;20034;-81
2021/05/08 01:20:05;;;;;;;9.55;3.63;;;;;;;5.83;99.77;101038.72;5014513;28;20040;-81
2021/05/08 01:22:31;;;;;;;13.57;4.25;;;;;;;5.80;99.30;101039.34;5018377;28;20026;-81
2021/05/08 01:24:57;;;;;;;11.02;3.70;;;;;;;5.61;100.00;101041.50;5011998;28;20035;-82
2021/05/08 01:27:23;;;;;;;8.27;3.78;;;;;;;5.64;99.74;101051.56;5020181;28;20025;-82
2021/05/08 01:29:49;;;;;;;7.75;3.75;;;;;;;5.50;100.00;101058.91;5028997;28;20397;-82
2021/05/08 01:32:15;;;;;;;9.45;3.72;;;;;;;5.47;100.00;101052.31;5012629;28;20100;-82
2021/05/08 01:34:40;;;;;;;15.10;4.18;;;;;;;5.32;100.00;101051.97;5027602;28;20044;-82
2021/05/08 01:37:07;;;;;;;7.90;3.85;;;;;;;5.38;100.00;101048.06;5016185;28;20033;-81
2021/05/08 01:39:32;;;;;;;10.18;4.40;;;;;;;5.49;100.00;101044.78;5011122;28;20387;-82
2021/05/08 01:41:58;;;;;;;8.10;3.47;;;;;;;5.46;100.00;101042.72;5018036;28;20037;-82
2021/05/08 01:44:25;;;;;;;10.10;4.07;;;;;;;5.45;100.00;101046.50;5037212;28;20168;-82
2021/05/08 01:46:53;;;;;;;8.63;3.78;;;;;;;5.53;100.00;101060.16;5030718;28;20120;-82
2021/05/08 01:49:20;;;;;;;7.45;3.65;;;;;;;5.49;100.00;101063.47;5006234;28;20072;-82
2021/05/08 01:51:46;;;;;;;11.07;4.07;;;;;;;5.52;100.00;101064.72;5028227;28;20032;-82
2021/05/08 01:54:16;;;;;;;10.23;4.05;;;;;;;5.56;100.00;101060.34;5014204;28;20127;-82
2021/05/08 01:56:43;;;;;;;8.38;4.70;;;;;;;5.39;100.00;101063.75;5019941;28;20026;-82
2021/05/08 01:59:14;;;;;;;11.43;4.20;;;;;;;5.42;100.00;101060.44;5019435;28;20105;-82
2021/05/08 02:01:42;;;;;;;7.55;4.18;;;;;;;5.43;100.00;101054.03;5028906;28;20061;-82
2021/05/08 02:04:09;;;;;;;12.68;4.50;;;;;;;5.47;100.00;101057.66;4997523;28;20461;-81
2021/05/08 02:06:37;;;;;;;6.63;3.75;;;;;;;5.32;100.00;101055.38;5016480;28;20456;-82
2021/05/08 02:09:31;;;;;;;8.07;4.05;;;;;;;5.19;100.00;101050.16;5008572;28;20045;-81
2021/05/08 02:11:59;;;;;;;7.53;4.35;;;;;;;5.37;100.00;101060.59;5013042;28;20062;-82
2021/05/08 02:14:26;;;;;;;10.48;3.97;;;;;;;5.18;100.00;101056.59;5013171;28;20040;-82
2021/05/08 02:16:52;;;;;;;12.05;4.47;;;;;;;5.20;100.00;101057.88;5008996;28;20052;-82
2021/05/08 02:19:18;;;;;;;12.05;4.63;;;;;;;5.25;100.00;101056.94;5032829;28;20501;-82
2021/05/08 02:21:44;;;;;;;14.40;4.72;;;;;;;5.21;100.00;101058.66;5015884;28;20085;-82
2021/05/08 02:24:10;;;;;;;8.90;4.53;;;;;;;5.29;100.00;101055.22;5023393;28;20053;-82
2021/05/08 02:26:36;;;;;;;9.65;4.82;;;;;;;5.37;100.00;101059.81;5021293;28;20060;-82
2021/05/08 02:29:02;;;;;;;11.00;4.28;;;;;;;5.27;100.00;101060.88;5015856;28;20026;-82
2021/05/08 02:31:27;;;;;;;11.60;4.57;;;;;;;5.41;100.00;101058.91;5018505;28;20037;-81
2021/05/08 02:33:53;;;;;;;14.88;4.72;;;;;;;5.60;100.00;101055.16;5018260;28;20097;-81
2021/05/08 02:36:19;;;;;;;10.90;4.90;;;;;;;5.62;100.00;101056.41;5019409;28;20030;-80
2021/05/08 02:38:44;;;;;;;13.77;4.80;;;;;;;5.66;100.00;101056.59;5025736;28;20072;-82
2021/05/08 02:41:11;;;;;;;5.93;4.22;;;;;;;5.62;100.00;101053.75;5017466;28;20044;-81
2021/05/08 02:43:36;;;;;;;10.07;5.00;;;;;;;5.46;100.00;101063.28;5028697;28;20030;-80
2021/05/08 02:46:11;;;;;;;10.18;4.70;;;;;;;5.68;100.00;101068.53;5016274;28;20033;-81
2021/05/08 02:48:36;;;;;;;13.82;4.82;;;;;;;5.43;100.00;101069.25;5026096;28;20572;-82
2021/05/08 02:51:02;;;;;;;15.93;5.78;;;;;;;5.43;100.00;101061.25;5033153;28;20380;-81
2021/05/08 02:53:28;;;;;;;8.40;5.43;;;;;;;5.28;100.00;101065.09;5021854;28;20030;-81
2021/05/08 02:55:56;;;;;;;9.18;4.63;;;;;;;5.28;100.00;101062.44;5017218;28;20100;-81
2021/05/08 02:58:25;;;;;;;9.10;4.82;;;;;;;5.32;100.00;101059.97;5012765;28;20587;-81
2021/05/08 03:00:52;;;;;;;11.98;4.90;;;;;;;5.07;100.00;101064.09;5008311;28;20021;-82
2021/05/08 03:03:18;;;;;;;11.60;5.05;;;;;;;5.09;100.00;101066.47;5015551;28;20458;-82
2021/05/08 03:05:47;;;;;;;15.55;5.00;;;;;;;5.16;100.00;101072.94;5016419;28;20024;-81
2021/05/08 03:08:17;;;;;;;8.00;4.82;;;;;;;4.92;100.00;101063.69;5036539;28;20025;-81
2021/05/08 03:10:43;;;;;;;10.70;4.70;;;;;;;4.96;100.00;101070.78;5023500;28;20106;-81
2021/05/08 03:13:10;;;;;;;15.32;5.20;;;;;;;5.00;100.00;101073.63;5015625;28;20022;-81
2021/05/08 03:15:37;;;;;;;9.27;4.45;;;;;;;5.01;100.00;101070.69;5019671;28;20037;-81
2021/05/08 03:18:05;;;;;;;16.45;5.00;;;;;;;4.82;100.00;101074.66;5036504;28;20041;-81
2021/05/08 03:20:31;;;;;;;8.50;4.60;;;;;;;4.80;100.00;101074.16;5035937;28;20037;-82
2021/05/08 03:22:57;;;;;;;10.25;4.60;;;;;;;4.80;100.00;101066.16;5019474;28;20437;-82
2021/05/08 03:25:22;;;;;;;14.73;4.88;;;;;;;4.80;100.00;101072.25;5019196;28;20064;-81
2021/05/08 03:27:49;;;;;;;11.88;4.80;;;;;;;4.65;100.00;101070.00;5015821;28;20045;-81
2021/05/08 03:30:16;;;;;;;9.30;4.47;;;;;;;4.48;100.00;101081.34;5024752;28;20032;-81
2021/05/08 03:32:42;;;;;;;15.65;5.22;;;;;;;4.66;100.00;101071.56;5031721;28;20398;-81
2021/05/08 03:35:08;;;;;;;8.93;4.78;;;;;;;4.66;100.00;101071.56;5034182;28;20036;-81
2021/05/08 03:37:34;;;;;;;8.25;4.90;;;;;;;4.56;100.00;101079.81;5018684;28;20049;-81
2021/05/08 03:39:59;;;;;;;11.30;5.15;;;;;;;4.59;100.00;101082.66;5032139;28;20068;-82
2021/05/08 03:42:25;;;;;;;12.15;5.00;;;;;;;4.59;100.00;101073.88;5027561;28;20033;-81
2021/05/08 03:44:50;;;;;;;13.27;4.47;;;;;;;4.49;100.00;101077.56;5030794;28;20044;-81
2021/05/08 03:47:16;;;;;;;9.00;4.57;;;;;;;4.42;100.00;101071.09;5018913;28;20041;-80
2021/05/08 03:49:41;;;;;;;14.10;4.80;;;;;;;4.41;100.00;101074.84;5015325;28;20045;-81
2021/05/08 03:52:07;;;;;;;11.68;4.55;;;;;;;4.35;100.00;101074.19;5027616;28;20084;-81
2021/05/08 03:54:32;;;;;;;8.90;4.72;;;;;;;4.32;100.00;101072.13;5022606;28;20048;-82
2021/05/08 03:56:59;;;;;;;10.18;4.80;;;;;;;4.34;100.00;101075.28;5033128;28;20041;-82
2021/05/08 03:59:25;;;;;;;10.23;4.78;;;;;;;4.45;100.00;101070.50;5031952;28;20463;-81
2021/05/08 04:01:51;;;;;;;11.68;4.85;;;;;;;4.43;100.00;101070.00;5021999;28;20429;-81
2021/05/08 04:04:17;;;;;;;9.98;4.78;;;;;;;4.33;100.00;101075.59;5014362;28;20053;-81
2021/05/08 04:06:42;;;;;;;10.07;5.10;;;;;;;4.31;100.00;101075.88;5020287;28;20407;-81
2021/05/08 04:09:09;;;;;;;12.10;5.07;;;;;;;4.09;100.00;101075.84;5019279;28;20033;-81
2021/05/08 04:11:36;;;;;;;9.07;5.32;;;;;;;4.21;100.00;101085.97;5027166;28;20025;-81
2021/05/08 04:14:03;;;;;;;9.00;5.00;;;;;;;4.37;100.00;101087.22;5035452;28;20080;-82
2021/05/08 04:16:28;;;;;;;10.68;4.65;;;;;;;4.35;100.00;101078.72;5023135;28;20069;-81
2021/05/08 04:18:54;;;;;;;9.82;5.03;;;;;;;4.40;100.00;101082.06;5029064;28;20072;-81
2021/05/08 04:21:20;;;;;;;13.10;5.07;;;;;;;4.60;100.00;101094.13;5033756;22;20156;-75
2021/05/08 04:23:45;;;;;;;8.05;4.80;;;;;;;4.79;100.00;101089.38;5030190;28;20040;-76
2021/05/08 04:26:10;;;;;;;14.15;5.47;;;;;;;4.71;100.00;101091.97;5019860;28;20116;-75
2021/05/08 04:28:36;;;;;;;9.05;5.05;;;;;;;4.81;100.00;101092.53;5034944;28;20512;-75
2021/05/08 04:31:01;;;;;;;10.63;5.00;;;;;;;4.89;100.00;101093.66;5028949;28;20036;-75
2021/05/08 04:33:27;;;;;;;14.18;5.18;;;;;;;5.07;100.00;101090.00;5009933;28;20065;-75
2021/05/08 04:35:52;;;;;;;9.60;4.85;;;;;;;5.30;100.00;101094.19;5011544;28;20034;-75
2021/05/08 04:38:18;;;;;;;10.38;4.93;;;;;;;5.21;100.00;101094.16;5013278;28;20038;-76
2021/05/08 04:40:43;;;;;;;15.57;5.07;;;;;;;5.17;100.00;101100.41;5002874;28;20030;-75
2021/05/08 04:43:09;;;;;;;9.68;5.32;;;;;;;5.21;100.00;101090.69;5009830;28;20026;-75
2021/05/08 04:45:35;;;;;;;13.80;5.57;;;;;;;5.07;100.00;101096.13;4996421;28;20034;-75
2021/05/08 04:48:00;;;;;;;15.85;5.80;;;;;;;5.31;100.00;101099.22;5012494;28;20029;-73
2021/05/08 04:50:26;;;;;;;17.95;5.28;;;;;;;5.64;100.00;101110.31;5014396;28;20049;-76
2021/05/08 04:52:53;;;;;;;11.52;5.25;;;;;;;5.90;100.00;101107.75;5011166;28;20033;-76
2021/05/08 04:55:19;;;;;;;16.75;5.22;;;;;;;5.89;100.00;101109.63;5002647;28;20030;-75
2021/05/08 04:57:45;;;;;;;9.57;5.35;;;;;;;6.04;100.00;101116.44;5000255;28;20435;-76
2021/05/08 05:00:12;;;;;;;20.23;6.32;;;;;;;6.10;100.00;101107.13;5023713;28;20184;-76
2021/05/08 05:02:40;;;;;;;12.57;5.72;;;;;;;6.14;100.00;101108.88;5015421;28;20488;-76
2021/05/08 05:05:06;;;;;;;15.88;5.70;;;;;;;6.01;100.00;101112.47;5016882;28;20375;-76
2021/05/08 05:07:31;;;;;;;15.90;6.30;;;;;;;6.28;100.00;101108.72;5011954;28;20062;-76
2021/05/08 05:09:57;;;;;;;16.45;5.78;;;;;;;6.04;100.00;101119.88;5006334;28;20383;-76
2021/05/08 05:12:23;;;;;;;10.00;4.95;;;;;;;6.44;100.00;101117.84;5017768;28;20378;-76
2021/05/08 05:14:48;;;;;;;12.80;5.63;;;;;;;6.78;100.00;101115.13;5008358;28;20065;-75
2021/05/08 05:17:14;;;;;;;14.25;5.10;;;;;;;7.16;99.57;101117.91;5006697;28;20147;-75
2021/05/08 05:19:39;;;;;;;12.70;5.00;;;;;;;7.41;98.25;101121.59;5018768;28;20077;-76
2021/05/08 05:22:05;;;;;;;11.00;4.90;;;;;;;7.97;96.45;101123.81;5016926;28;20041;-76
2021/05/08 05:24:30;;;;;;;9.13;4.10;;;;;;;8.19;94.55;101113.56;5010478;28;20033;-75
2021/05/08 05:26:56;;;;;;;9.85;4.65;;;;;;;7.72;95.96;101120.19;5002127;28;20441;-76
2021/05/08 05:29:21;;;;;;;13.38;4.50;;;;;;;8.20;93.85;101125.88;5014715;28;20497;-76
2021/05/08 05:31:47;;;;;;;9.75;4.22;;;;;;;8.30;93.11;101130.09;5009398;28;20033;-76
2021/05/08 05:34:12;;;;;;;10.63;4.18;;;;;;;8.74;89.61;101125.91;5003740;28;20070;-76
2021/05/08 05:36:38;;;;;;;10.23;4.60;;;;;;;8.87;88.28;101125.63;5000780;28;20447;-76
2021/05/08 05:39:03;;;;;;;10.80;4.50;;;;;;;9.22;88.22;101134.09;5006537;28;20029;-75
2021/05/08 05:41:29;;;;;;;8.10;3.97;;;;;;;8.78;88.58;101137.56;4995763;28;20038;-76
2021/05/08 05:43:55;;;;;;;8.52;3.78;;;;;;;9.16;87.17;101130.06;5009319;28;20109;-76
2021/05/08 05:46:20;;;;;;;11.77;4.70;;;;;;;9.08;87.57;101139.78;4996081;28;20605;-76
2021/05/08 05:48:46;;;;;;;9.73;4.95;;;;;;;9.30;86.91;101138.59;5003899;28;20538;-76
2021/05/08 05:51:11;;;;;;;9.23;4.80;;;;;;;9.23;87.97;101145.63;4994032;28;20434;-76
2021/05/08 05:53:37;;;;;;;8.18;4.88;;;;;;;8.89;89.85;101150.25;5001340;28;20116;-76
2021/05/08 05:56:03;;;;;;;15.25;4.93;;;;;;;9.11;89.46;101146.41;4993882;28;20034;-76
2021/05/08 05:58:28;;;;;;;14.15;4.60;;;;;;;9.73;87.45;101146.13;5009898;28;20033;-76
2021/05/08 06:00:53;;;;;;;11.80;4.55;;;;;;;9.73;87.29;101149.63;5007101;28;20483;-76
2021/05/08 06:03:20;;;;;;;7.82;4.70;;;;;;;10.26;85.16;101147.78;4992670;28;20042;-76
2021/05/08 06:05:46;;;;;;;9.23;4.35;;;;;;;10.06;84.78;101140.63;5006914;28;20109;-77
2021/05/08 06:08:12;;;;;;;7.88;4.65;;;;;;;10.49;83.08;101154.25;4997829;28;20390;-76
2021/05/08 06:10:38;;;;;;;10.30;4.82;;;;;;;10.21;84.38;101154.19;5006236;28;20025;-76
2021/05/08 06:13:04;;;;;;;11.35;5.43;;;;;;;10.48;83.68;101145.38;5016375;28;20025;-75
2021/05/08 06:15:30;;;;;;;12.77;4.95;;;;;;;10.37;83.61;101152.38;5003720;28;22213;-76
2021/05/08 06:17:57;;;;;;;9.63;4.78;;;;;;;10.47;83.48;101151.88;5016670;28;20051;-76
2021/05/08 06:20:22;;;;;;;8.25;4.97;;;;;;;11.04;82.20;101151.53;5004391;28;20069;-76
2021/05/08 06:22:48;;;;;;;8.48;4.30;;;;;;;11.04;81.46;101148.03;4993568;28;20053;-76
2021/05/08 06:25:14;;;;;;;13.40;4.57;;;;;;;11.32;81.23;101146.09;5005661;28;20041;-76
2021/05/08 06:27:40;;;;;;;10.82;4.47;;;;;;;11.11;79.01;101150.94;5016723;28;20028;-76
2021/05/08 06:30:06;;;;;;;15.48;5.30;;;;;;;10.68;82.93;101155.16;5010099;28;20096;-76
2021/05/08 06:32:31;;;;;;;11.00;5.30;;;;;;;10.51;81.53;101158.13;5003870;28;20068;-76
2021/05/08 06:34:57;;;;;;;8.85;4.88;;;;;;;10.78;83.80;101162.75;5005605;28;20474;-75
2021/05/08 06:37:22;;;;;;;8.25;4.90;;;;;;;10.78;81.27;101170.84;5008628;28;20113;-76
2021/05/08 06:39:48;;;;;;;11.23;4.63;;;;;;;11.03;81.60;101168.84;5000685;28;20056;-74
2021/05/08 06:42:13;;;;;;;10.88;4.15;;;;;;;11.65;79.26;101160.81;5003037;28;20035;-74
2021/05/08 06:44:39;;;;;;;10.40;4.75;;;;;;;11.93;79.17;101166.09;5003749;28;20545;-74
2021/05/08 06:47:04;;;;;;;8.85;4.50;;;;;;;12.22;76.90;101171.00;5012452;28;20030;-74
2021/05/08 06:49:30;;;;;;;12.10;3.97;;;;;;;12.34;76.10;101170.09;5008128;28;20026;-75
2021/05/08 06:51:55;;;;;;;9.75;4.22;;;;;;;11.91;77.64;101165.66;5009761;28;20037;-74
2021/05/08 06:54:20;;;;;;;9.80;4.00;;;;;;;12.11;77.64;101167.28;5010242;28;20042;-75
2021/05/08 06:56:46;;;;;;;12.23;4.00;;;;;;;11.99;76.93;101166.59;5010601;28;20030;-75
2021/05/08 06:59:11;;;;;;;10.25;4.13;;;;;;;11.78;76.59;101162.31;4997029;28;20046;-74
2021/05/08 07:01:37;;;;;;;9.32;3.92;;;;;;;11.93;77.97;101162.59;5002659;28;20034;-74
2021/05/08 07:04:03;;;;;;;10.25;4.07;;;;;;;12.59;75.43;101164.09;5002843;28;20137;-76
2021/05/08 07:06:28;;;;;;;9.82;4.55;;;;;;;12.95;72.37;101165.53;5012503;28;20068;-77
2021/05/08 07:08:54;;;;;;;13.20;3.63;;;;;;;12.98;71.12;101169.47;5008290;28;20038;-75
2021/05/08 07:11:20;;;;;;;15.43;3.70;;;;;;;13.38;72.51;101162.50;5006736;28;20037;-75
2021/05/08 07:13:46;;;;;;;14.52;4.07;;;;;;;12.92;69.60;101165.47;5002547;28;20037;-76
2021/05/08 07:16:11;;;;;;;11.27;3.53;;;;;;;12.49;72.64;101175.44;5005293;28;20479;-75
2021/05/08 07:18:36;;;;;;;9.32;3.45;;;;;;;11.96;75.42;101168.13;4998935;28;20046;-75
2021/05/08 07:21:02;;;;;;;10.20;3.72;;;;;;;12.68;74.14;101161.16;5017258;28;20695;-75
2021/05/08 07:23:28;;;;;;;8.88;3.47;;;;;;;12.97;71.15;101167.91;5013989;28;20044;-76
2021/05/08 07:25:53;;;;;;;8.57;3.10;;;;;;;13.00;71.23;101172.59;5011134;28;20025;-76
2021/05/08 07:28:20;;;;;;;11.68;3.53;;;;;;;13.10;70.11;101162.00;4999730;28;20503;-76
2021/05/08 07:30:48;;;;;;;8.88;3.25;;;;;;;13.73;67.83;101172.34;5014334;28;20040;-75
2021/05/08 07:33:15;;;;;;;13.65;3.50;;;;;;;13.83;68.01;101166.31;5013419;28;20052;-76
2021/05/08 07:35:42;;;;;;;11.70;2.97;;;;;;;13.15;66.11;101166.31;5013862;28;20034;-75
2021/05/08 07:38:09;;;;;;;6.35;2.90;;;;;;;12.48;71.37;101163.09;5000866;28;20042;-75
2021/05/08 07:40:35;;;;;;;7.90;2.55;;;;;;;12.90;72.01;101165.06;5009820;28;20030;-75
2021/05/08 07:43:01;;;;;;;7.07;2.60;;;;;;;13.65;67.62;101162.53;5005424;28;20037;-75
2021/05/08 07:45:28;;;;;;;8.55;2.20;;;;;;;14.18;62.05;101156.00;5014973;28;20576;-75
2021/05/08 07:47:54;;;;;;;10.70;2.70;;;;;;;14.70;61.51;101160.56;5016328;28;20026;-75
2021/05/08 07:50:20;;;;;;;7.65;3.03;;;;;;;13.22;64.93;101161.06;5012878;28;20117;-75
2021/05/08 07:52:46;;;;;;;9.43;2.95;;;;;;;12.98;67.47;101158.66;5005262;28;20158;-76
2021/05/08 07:55:12;;;;;;;7.90;2.58;;;;;;;13.69;63.37;101150.63;5012742;28;20045;-75
2021/05/08 07:57:38;;;;;;;9.05;2.45;;;;;;;13.44;62.54;101157.56;5006397;28;20410;-75
2021/05/08 08:00:08;;;;;;;7.20;2.25;;;;;;;13.73;60.31;101156.88;5012565;28;20044;-75
2021/05/08 08:02:35;;;;;;;5.55;2.20;;;;;;;13.89;61.07;101156.75;5011963;28;20051;-75
2021/05/08 08:05:01;;;;;;;6.43;2.17;;;;;;;13.60;59.49;101150.13;5014386;28;20151;-77
2021/05/08 08:07:27;;;;;;;8.88;2.00;;;;;;;13.54;61.10;101152.34;5010227;28;20489;-76
2021/05/08 08:09:53;;;;;;;6.45;2.22;;;;;;;13.99;59.96;101151.50;5012124;28;20034;-76
2021/05/08 08:12:18;;;;;;;7.65;2.10;;;;;;;15.05;56.78;101144.69;5009658;28;20029;-76
2021/05/08 08:14:44;;;;;;;7.60;2.13;;;;;;;15.39;55.48;101146.94;5007049;28;20038;-76
2021/05/08 08:17:10;;;;;;;4.05;1.60;;;;;;;15.54;52.78;101149.81;5011025;28;20022;-75
2021/05/08 08:19:35;;;;;;;6.53;1.55;;;;;;;15.77;51.25;101143.03;5006848;28;20044;-75
2021/05/08 08:22:00;;;;;;;5.45;1.60;;;;;;;15.87;53.26;101145.00;5009404;28;20056;-75
2021/05/08 08:24:26;;;;;;;7.97;2.42;;;;;;;15.94;52.27;101138.84;5003132;28;20092;-75
2021/05/08 08:26:52;;;;;;;9.23;1.73;;;;;;;16.32;51.89;101140.25;5014526;28;20029;-75
2021/05/08 08:29:17;;;;;;;8.45;2.08;;;;;;;16.60;50.83;101143.09;5009125;28;20037;-75
2021/05/08 08:31:44;;;;;;;6.28;1.80;;;;;;;16.46;50.05;101135.63;5009511;28;20034;-75
2021/05/08 08:34:10;;;;;;;7.78;1.65;;;;;;;16.40;50.80;101136.38;5009910;28;20029;-76
2021/05/08 08:36:38;;;;;;;5.70;1.80;;;;;;;16.88;48.56;101133.06;5012684;28;20498;-75
2021/05/08 08:39:24;;;;;;;5.20;1.75;;;;;;;17.13;51.29;101131.19;5011932;28;20451;-77
2021/05/08 08:41:52;;;;;;;4.57;1.30;;;;;;;17.12;49.83;101143.25;4980500;28;20101;-76
2021/05/08 08:44:17;;;;;;;8.63;2.17;;;;;;;16.60;49.39;101135.72;4983929;28;20085;-76
2021/05/08 08:46:44;;;;;;;5.18;1.30;;;;;;;16.57;51.05;101138.44;4977215;28;20495;-75
2021/05/08 08:49:11;;;;;;;5.13;1.70;;;;;;;17.13;50.70;101136.63;4985901;28;20038;-76
2021/05/08 08:51:38;;;;;;;6.35;1.95;;;;;;;17.22;47.25;101138.97;4981256;28;20073;-76
2021/05/08 08:54:04;;;;;;;6.43;1.85;;;;;;;17.37;47.98;101132.38;4981634;28;20041;-76
2021/05/08 08:56:34;;;;;;;5.82;1.77;;;;;;;17.64;47.99;101133.56;4984546;28;20077;-76
2021/05/08 08:59:04;;;;;;;4.10;1.70;;;;;;;17.46;47.55;101146.38;4989202;28;20046;-76
2021/05/08 09:01:30;;;;;;;6.45;1.55;;;;;;;16.98;47.00;101128.81;4986602;28;20050;-75
2021/05/08 09:03:56;;;;;;;6.80;1.70;;;;;;;17.62;48.57;101135.09;4983632;28;20038;-76
2021/05/08 09:06:22;;;;;;;4.65;1.63;;;;;;;17.96;46.79;101136.25;4973063;28;20066;-76
2021/05/08 09:08:51;;;;;;;5.57;1.90;;;;;;;17.97;47.43;101141.31;4980955;28;20501;-76
2021/05/08 09:11:19;;;;;;;5.47;1.80;;;;;;;17.07;49.27;101118.34;4990534;28;20046;-76
2021/05/08 09:13:45;;;;;;;7.47;1.70;;;;;;;17.81;48.20;101127.31;4986264;28;20034;-76
2021/05/08 09:16:11;;;;;;;5.13;1.60;;;;;;;18.20;46.21;101134.59;4971329;28;20161;-76
2021/05/08 09:18:38;;;;;;;8.68;1.60;;;;;;;18.47;44.37;101135.72;4993175;28;20117;-76
2021/05/08 09:21:06;;;;;;;4.53;1.70;;;;;;;18.22;44.17;101135.78;5006619;28;20037;-76
2021/05/08 09:23:40;;;;;;;5.78;1.60;;;;;;;17.55;45.22;101130.47;5011680;28;20045;-76
2021/05/08 09:26:11;;;;;;;6.55;1.60;;;;;;;17.71;45.73;101132.78;4999009;28;20029;-76
2021/05/08 09:28:38;;;;;;;6.63;1.80;;;;;;;17.36;45.52;101117.22;5001106;28;20030;-76
2021/05/08 09:31:12;;;;;;;4.35;1.42;;;;;;;17.57;45.91;101125.41;5006192;28;20037;-77
2021/05/08 09:33:38;;;;;;;4.28;1.23;;;;;;;17.57;45.97;101122.69;5010651;28;20030;-76
2021/05/08 09:36:06;;;;;;;3.63;1.80;;;;;;;17.65;46.08;101116.03;5011440;28;20033;-76
2021/05/08 09:38:37;;;;;;;5.03;1.33;;;;;;;17.50;47.49;101122.66;5008529;28;20061;-76
2021/05/08 09:41:10;;;;;;;8.77;1.75;;;;;;;17.06;47.25;101108.63;5016306;28;20053;-77
2021/05/08 09:43:37;;;;;;;6.25;1.60;;;;;;;16.26;46.06;101105.25;5007910;28;20038;-75
2021/05/08 09:46:03;;;;;;;4.53;1.45;;;;;;;16.02;46.43;101100.50;5013630;28;20061;-77
2021/05/08 09:48:31;;;;;;;4.15;1.20;;;;;;;15.82;47.39;101084.81;5008340;28;20491;-76
2021/05/08 09:51:15;;;;;;;3.72;1.52;;;;;;;16.44;47.62;101091.72;5008491;28;20049;-76
2021/05/08 09:53:42;;;;;;;4.10;1.38;;;;;;;17.15;47.68;101092.66;5005031;28;20041;-76
2021/05/08 09:56:34;;;;;;;5.80;1.60;;;;;;;18.24;44.06;101089.03;5011934;28;20034;-76
2021/05/08 09:59:32;;;;;;;5.50;1.40;;;;;;;18.85;45.39;101074.72;4986687;28;20118;-77
2021/05/08 10:02:05;;;;;;;5.60;1.50;;;;;;;19.45;42.88;101088.69;4995269;28;20379;-76
2021/05/08 10:04:31;;;;;;;3.95;1.10;;;;;;;19.73;41.66;101080.22;4994433;28;20026;-77
2021/05/08 10:07:16;;;;;;;4.40;1.40;;;;;;;19.82;39.33;101073.50;5005463;28;20037;-77
2021/05/08 10:09:46;;;;;;;3.13;1.40;;;;;;;18.70;41.75;101071.28;5004691;28;20033;-76
2021/05/08 10:12:14;;;;;;;5.17;1.50;;;;;;;18.39;42.35;101068.72;4994712;28;20562;-76
2021/05/08 10:14:42;;;;;;;4.95;1.42;;;;;;;18.39;43.06;101063.25;5000298;28;20117;-76
2021/05/08 10:17:10;;;;;;;4.95;1.40;;;;;;;18.02;42.55;101075.47;5009282;28;20025;-76
2021/05/08 10:19:40;;;;;;;5.70;1.52;;;;;;;18.06;44.42;101071.97;5007290;28;20462;-74
2021/05/08 10:36:14;;;;;;;4.00;1.88;;;;;;;18.84;40.69;101059.50;5022725;28;20141;-77
2021/05/08 10:39:57;;;;;;;5.30;2.20;;;;;;;17.95;40.22;101059.16;4985875;28;20042;-77
2021/05/08 10:50:59;;;;;;;5.65;2.40;;;;;;;17.89;42.39;101049.81;5002556;28;20125;-77
2021/05/08 10:54:27;;;;;;;3.97;2.05;;;;;;;17.76;41.50;101039.75;5001730;28;20077;-77
2021/05/08 11:05:33;;;;;;;4.93;1.63;;;;;;;19.00;40.73;101032.47;4884386;29;20049;-77
2021/05/08 11:08:45;;;;;;;5.65;1.98;;;;;;;18.85;40.51;101039.22;4874529;29;20105;-77
2021/05/08 11:11:20;;;;;;;4.03;1.77;;;;;;;18.93;40.94;101021.59;4804219;29;20042;-80
2021/05/08 11:13:50;;;;;;;5.63;1.92;;;;;;;19.20;41.71;101030.72;4824020;29;20054;-78
2021/05/08 11:16:20;;;;;;;3.38;1.70;;;;;;;19.70;39.51;101031.06;4824734;29;20091;-78
2021/05/08 11:18:49;;;;;;;30.88;3.08;;;;;;;18.84;41.35;101035.72;4801416;29;20054;-77
2021/05/08 11:21:14;;;;;;;7.00;2.30;;;;;;;19.33;39.90;101018.19;4807175;29;20042;-77
2021/05/08 11:23:41;;;;;;;3.03;2.10;;;;;;;19.19;38.44;101021.00;4824781;29;20763;-77
2021/05/08 11:26:32;;;;;;;8.07;2.33;;;;;;;19.13;39.02;101014.41;4819419;29;20125;-77
2021/05/08 11:29:05;;;;;;;4.13;2.08;;;;;;;18.80;37.13;101012.34;4803903;29;20050;-77
2021/05/08 11:31:37;;;;;;;10.07;2.40;;;;;;;19.66;37.72;101011.19;4824247;29;20049;-77
2021/05/08 11:34:22;;;;;;;7.80;2.28;;;;;;;20.02;36.46;101000.59;4950329;28;20046;-77
2021/05/08 11:37:08;;;;;;;4.97;2.00;;;;;;;18.67;38.73;100995.69;4940956;28;20070;-77
2021/05/08 11:39:38;;;;;;;4.97;1.67;;;;;;;19.07;39.33;101005.09;4946164;28;20054;-78
2021/05/08 11:42:10;;;;;;;3.40;1.90;;;;;;;19.69;37.63;101000.22;4957434;28;20054;-77
2021/05/08 11:44:38;;;;;;;7.85;2.10;;;;;;;20.21;38.00;100994.53;4948369;29;20043;-78
2021/05/08 11:49:55;;;;;;;9.13;2.15;;;;;;;19.96;36.58;100988.56;4991632;28;20034;-79
2021/05/08 11:52:40;;;;;;;4.38;2.00;;;;;;;19.69;36.30;100986.56;5003969;28;20509;-79
2021/05/08 11:55:18;;;;;;;4.45;1.70;;;;;;;20.12;36.37;100977.81;4993557;28;20030;-79
2021/05/08 11:57:55;;;;;;;3.80;2.00;;;;;;;19.91;35.32;100980.81;4999956;28;20039;-80
2021/05/08 12:00:25;;;;;;;5.43;2.22;;;;;;;19.23;34.18;100972.59;4992113;28;20053;-78
2021/05/08 12:03:06;;;;;;;4.25;2.10;;;;;;;19.60;35.68;100975.34;4994398;28;20034;-78